Time;durP1;ratioP1;P1;durP2;ratioP2;P2;SDS_P1;SDS_P2;PMS_P1;PMS_P2;Temp;Humidity;BMP_temperature;BMP_pressure;BME280_temperature;BME280_humidity;BME280_pressure;Samples;Min_cycle;Max_cycle;Signal;HPM_P1;HPM_P2
2021/07/12 00:00:45;;;;;;;;;3.25;3.25;;;;;21.94;55.79;100712.16;4886041;29;45470;-67
2021/07/12 00:03:11;;;;;;;;;4.00;4.00;;;;;21.97;55.88;100720.06;4890961;29;45404;-67
2021/07/12 00:05:40;;;;;;;;;6.00;4.00;;;;;21.91;55.57;100693.38;4888039;29;45488;-67
2021/07/12 00:08:05;;;;;;;;;5.00;4.00;;;;;21.78;56.17;100672.59;4897634;29;45323;-67
2021/07/12 00:10:31;;;;;;;;;3.25;3.25;;;;;21.75;55.97;100662.03;4896258;29;45448;-67
2021/07/12 00:12:56;;;;;;;;;3.00;3.00;;;;;21.71;56.11;100665.94;4880835;29;46155;-67
2021/07/12 00:15:24;;;;;;;;;4.00;4.00;;;;;21.67;56.03;100664.50;4870304;29;45243;-67
2021/07/12 00:17:50;;;;;;;;;3.50;3.50;;;;;21.70;55.92;100649.78;4886432;29;45300;-67
2021/07/12 00:20:17;;;;;;;;;5.00;4.00;;;;;21.76;56.41;100658.28;4885894;29;45302;-67
2021/07/12 00:22:44;;;;;;;;;4.25;4.25;;;;;21.81;55.90;100657.94;4886063;29;47355;-67
2021/07/12 00:25:11;;;;;;;;;3.00;3.00;;;;;21.79;56.17;100660.75;4886014;29;45371;-67
2021/07/12 00:27:37;;;;;;;;;4.50;4.50;;;;;21.65;56.47;100631.13;4886240;29;45245;-67
2021/07/12 00:30:09;;;;;;;;;4.25;4.25;;;;;21.72;56.13;100645.06;4886111;29;45238;-67
2021/07/12 00:32:35;;;;;;;;;3.00;3.00;;;;;21.67;56.43;100633.72;4877891;29;48422;-67
2021/07/12 00:35:00;;;;;;;;;3.50;3.50;;;;;21.57;56.36;100617.31;4886581;29;45544;-67
2021/07/12 00:37:26;;;;;;;;;3.25;3.25;;;;;21.63;56.29;100631.28;4890505;29;45613;-67
2021/07/12 00:39:51;;;;;;;;;4.00;4.00;;;;;21.44;56.65;100622.84;4897284;29;45527;-67
2021/07/12 00:42:17;;;;;;;;;2.00;2.00;;;;;21.58;56.33;100671.50;4884694;29;46429;-67
2021/07/12 00:44:43;;;;;;;;;2.25;2.25;;;;;21.65;56.36;100705.34;4884629;29;45294;-67
2021/07/12 00:47:08;;;;;;;;;2.25;2.25;;;;;21.54;56.44;100678.16;4884738;29;45390;-67
2021/07/12 00:49:35;;;;;;;;;2.00;2.00;;;;;21.58;56.49;100685.06;4884039;29;45469;-67
2021/07/12 00:52:01;;;;;;;;;3.00;3.00;;;;;21.50;57.02;100684.84;4884190;29;47406;-67
2021/07/12 00:54:29;;;;;;;;;2.75;2.75;;;;;21.56;57.17;100692.50;4885707;29;45420;-67
2021/07/12 00:56:59;;;;;;;;;3.50;3.50;;;;;21.61;57.03;100708.44;4884766;29;45490;-67
2021/07/12 00:59:26;;;;;;;;;3.00;3.00;;;;;21.56;57.56;100695.19;4885934;29;45424;-67
2021/07/12 01:01:53;;;;;;;;;4.25;3.00;;;;;21.43;57.57;100676.28;4885584;29;45586;-67
2021/07/12 01:04:19;;;;;;;;;3.00;3.00;;;;;21.44;57.61;100674.44;4898758;29;45296;-67
2021/07/12 01:06:44;;;;;;;;;3.00;2.00;;;;;21.36;57.06;100666.03;4890432;29;45427;-67
2021/07/12 01:09:10;;;;;;;;;3.00;3.00;;;;;21.33;56.92;100656.25;4888687;29;45317;-67
2021/07/12 01:11:41;;;;;;;;;4.00;4.00;;;;;21.52;57.25;100681.97;4889209;29;45496;-67
2021/07/12 01:14:12;;;;;;;;;4.00;4.00;;;;;21.49;57.09;100679.53;4885517;29;45528;-67
2021/07/12 01:16:58;;;;;;;;;3.75;3.25;;;;;21.36;57.43;100658.75;4885371;29;45525;-67
2021/07/12 01:19:53;;;;;;;;;4.00;4.00;;;;;21.39;57.39;100660.34;4885401;29;45301;-67
2021/07/12 01:22:46;;;;;;;;;3.25;3.25;;;;;21.16;57.20;100627.72;4889251;29;46065;-67
2021/07/12 01:25:36;;;;;;;;;4.00;3.00;;;;;21.26;57.16;100639.59;4885537;29;45427;-67
2021/07/12 01:28:13;;;;;;;;;3.50;3.50;;;;;21.22;57.31;100637.25;4885522;29;45527;-67
2021/07/12 01:31:13;;;;;;;;;2.75;2.75;;;;;21.22;58.05;100634.56;4885356;29;45343;-67
2021/07/12 01:33:48;;;;;;;;;3.00;3.00;;;;;20.99;57.92;100593.78;4894330;29;45359;-67
2021/07/12 01:36:29;;;;;;;;;3.75;3.75;;;;;21.14;57.37;100610.72;4885182;29;45158;-67
2021/07/12 01:38:58;;;;;;;;;3.00;3.00;;;;;21.02;58.05;100589.97;4890898;29;45525;-67
2021/07/12 01:41:29;;;;;;;;;4.25;3.00;;;;;21.07;57.62;100594.06;4903828;29;45285;-67
2021/07/12 01:44:07;;;;;;;;;4.00;4.00;;;;;21.08;57.52;100586.75;4874912;29;47296;-67
2021/07/12 01:46:45;;;;;;;;;4.25;4.00;;;;;21.09;57.54;100593.94;4885241;29;45215;-67
2021/07/12 01:49:19;;;;;;;;;5.00;5.00;;;;;20.94;58.18;100574.28;4897829;29;45472;-67
2021/07/12 01:52:03;;;;;;;;;3.00;3.00;;;;;21.10;58.18;100595.69;4885173;29;45350;-67
2021/07/12 01:54:51;;;;;;;;;4.50;4.00;;;;;21.10;57.96;100596.53;4886672;29;47265;-67
2021/07/12 01:57:29;;;;;;;;;5.50;5.50;;;;;21.05;57.67;100592.47;4900848;29;45659;-67
2021/07/12 02:00:05;;;;;;;;;5.50;4.25;;;;;20.98;57.85;100583.06;4883773;29;45448;-67
2021/07/12 02:02:32;;;;;;;;;4.50;4.50;;;;;20.89;58.21;100571.94;4884657;29;45166;-67
2021/07/12 02:05:03;;;;;;;;;6.00;5.50;;;;;20.95;57.96;100578.75;4890853;29;45417;-67
2021/07/12 02:07:32;;;;;;;;;7.00;6.00;;;;;21.04;58.55;100591.56;4884809;29;45555;-67
2021/07/12 02:10:00;;;;;;;;;5.50;5.00;;;;;20.89;57.92;100571.09;4875715;29;45277;-67
2021/07/12 02:12:28;;;;;;;;;4.00;4.00;;;;;20.95;58.46;100586.00;4884922;29;45484;-67
2021/07/12 02:14:55;;;;;;;;;4.75;4.75;;;;;20.92;57.70;100582.56;4884735;29;45620;-67
2021/07/12 02:17:24;;;;;;;;;8.00;6.00;;;;;21.09;58.33;100608.34;4884802;29;45412;-67
2021/07/12 02:19:51;;;;;;;;;6.75;6.25;;;;;21.01;57.76;100585.53;4884622;29;45449;-67
2021/07/12 02:22:18;;;;;;;;;7.75;5.75;;;;;21.12;57.92;100607.25;4884140;29;45315;-67
2021/07/12 02:24:47;;;;;;;;;5.75;5.75;;;;;21.14;57.98;100605.28;4884192;29;45391;-67
2021/07/12 02:27:16;;;;;;;;;6.00;6.00;;;;;21.10;58.19;100593.81;4884374;29;45369;-67
2021/07/12 02:29:42;;;;;;;;;5.00;5.00;;;;;21.25;58.48;100628.84;4884517;29;45459;-67
2021/07/12 02:32:09;;;;;;;;;4.50;4.50;;;;;21.16;58.52;100607.88;4884406;29;45465;-67
2021/07/12 02:34:36;;;;;;;;;9.75;8.00;;;;;21.25;58.15;100618.00;4884087;29;45712;-67
2021/07/12 02:37:03;;;;;;;;;6.00;5.25;;;;;21.32;58.54;100618.38;4884256;29;45444;-67
2021/07/12 02:39:30;;;;;;;;;8.50;6.50;;;;;21.16;58.72;100588.88;4907758;28;45484;-67
2021/07/12 02:41:57;;;;;;;;;5.50;5.50;;;;;21.29;57.96;100606.78;4883267;29;45911;-67
2021/07/12 02:44:24;;;;;;;;;4.00;4.00;;;;;21.26;57.64;100609.72;4884177;29;45345;-67
2021/07/12 02:46:50;;;;;;;;;3.00;3.00;;;;;21.12;57.99;100599.13;4873685;29;46058;-67
2021/07/12 02:49:16;;;;;;;;;4.75;4.75;;;;;21.10;57.78;100587.53;4884204;29;45271;-67
2021/07/12 02:51:49;;;;;;;;;3.25;3.25;;;;;21.18;58.08;100609.47;4884181;29;45306;-67
2021/07/12 02:54:22;;;;;;;;;3.00;3.00;;;;;21.09;58.33;100599.34;4884086;29;45387;-67
2021/07/12 02:56:47;;;;;;;;;4.00;4.00;;;;;;;;4884277;29;45264;-67
2021/07/12 02:59:13;;;;;;;;;3.50;3.50;;;;;20.94;58.00;100571.59;4884275;29;45256;-67
2021/07/12 03:01:39;;;;;;;;;3.00;3.00;;;;;20.96;58.55;100577.75;4884214;29;45411;-67
2021/07/12 03:04:04;;;;;;;;;4.00;4.00;;;;;20.89;58.92;100554.81;4890023;29;45509;-67
2021/07/12 03:06:33;;;;;;;;;4.50;4.50;;;;;21.06;58.73;100573.31;4895653;29;45271;-67
2021/07/12 03:09:12;;;;;;;;;5.00;4.00;;;;;21.07;58.83;100569.63;4885987;29;45319;-67
2021/07/12 03:11:50;;;;;;;;;6.50;6.00;;;;;21.03;58.40;100545.56;4888436;29;45497;-67
2021/07/12 03:14:19;;;;;;;;;3.75;3.75;;;;;21.15;58.47;100571.75;4884068;29;45707;-67
2021/07/12 03:16:49;;;;;;;;;5.00;5.00;;;;;21.08;58.28;100544.22;4883873;29;45537;-67
2021/07/12 03:19:28;;;;;;;;;4.00;4.00;;;;;21.00;58.31;100541.25;4893213;29;45435;-67
2021/07/12 03:21:56;;;;;;;;;4.00;4.00;;;;;20.82;58.28;100496.59;4883914;29;45418;-67
2021/07/12 03:24:21;;;;;;;;;5.00;5.00;;;;;20.92;58.80;100525.56;4883736;29;46397;-67
2021/07/12 03:26:52;;;;;;;;;3.00;3.00;;;;;21.00;58.56;100548.50;4896439;29;45481;-67
2021/07/12 03:29:19;;;;;;;;;4.00;4.00;;;;;20.99;58.83;100544.09;4883920;29;45251;-67
2021/07/12 03:31:45;;;;;;;;;5.25;5.25;;;;;20.86;58.90;100527.91;4883953;29;45328;-67
2021/07/12 03:34:13;;;;;;;;;4.00;4.00;;;;;20.79;58.79;100505.84;4883390;29;46167;-67
2021/07/12 03:36:39;;;;;;;;;5.50;5.00;;;;;20.85;59.16;100509.94;4885423;29;45288;-67
2021/07/12 03:39:06;;;;;;;;;3.25;3.25;;;;;20.85;58.65;100507.22;4869951;29;45339;-67
2021/07/12 03:41:32;;;;;;;;;5.00;4.50;;;;;21.00;59.17;100521.38;4888452;29;45368;-67
2021/07/12 03:43:59;;;;;;;;;4.50;4.50;;;;;20.88;58.67;100499.69;4893194;29;45414;-67
2021/07/12 03:46:24;;;;;;;;;5.00;5.00;;;;;20.84;58.85;100497.34;4885488;29;45860;-67
2021/07/12 03:48:49;;;;;;;;;5.00;5.00;;;;;20.87;59.28;100503.38;4870020;29;45285;-67
2021/07/12 03:51:21;;;;;;;;;3.75;3.75;;;;;20.97;59.36;100518.94;4899872;29;45817;-67
2021/07/12 03:53:46;;;;;;;;;5.00;5.00;;;;;20.97;59.43;100522.50;4890668;29;45522;-67
2021/07/12 03:56:13;;;;;;;;;4.75;3.75;;;;;20.84;59.55;100492.75;4885815;29;45352;-67
2021/07/12 03:58:39;;;;;;;;;4.75;4.75;;;;;20.80;59.04;100493.13;4885721;29;45364;-67
2021/07/12 04:01:05;;;;;;;;;3.75;3.75;;;;;20.91;59.42;100517.56;4885657;29;46649;-67
2021/07/12 04:03:30;;;;;;;;;4.75;4.75;;;;;20.94;59.69;100513.75;4896808;29;46152;-67
2021/07/12 04:05:55;;;;;;;;;3.50;3.25;;;;;20.82;59.15;100493.88;4885915;29;45449;-67
2021/07/12 04:08:21;;;;;;;;;4.50;4.50;;;;;20.70;58.99;100483.03;4886367;29;45411;-67
2021/07/12 04:10:46;;;;;;;;;3.75;3.75;;;;;20.69;59.11;100475.00;4894092;29;45435;-67
2021/07/12 04:13:13;;;;;;;;;4.00;4.00;;;;;20.90;59.27;100494.16;4886268;29;45451;-67
2021/07/12 04:15:39;;;;;;;;;5.25;5.25;;;;;20.87;59.44;100491.69;4873741;29;45461;-67
2021/07/12 04:18:05;;;;;;;;;5.25;4.00;;;;;20.94;59.02;100500.19;4886278;29;45452;-67
2021/07/12 04:20:31;;;;;;;;;3.75;3.75;;;;;20.81;59.26;100486.72;4877638;29;45502;-67
2021/07/12 04:22:59;;;;;;;;;3.75;3.00;;;;;20.89;59.20;100505.97;4902758;29;46330;-67
2021/07/12 04:25:25;;;;;;;;;3.00;3.00;;;;;20.98;59.09;100516.09;4885178;29;45246;-67
2021/07/12 04:27:50;;;;;;;;;4.75;4.00;;;;;20.98;59.28;100521.53;4884134;29;45553;-67
2021/07/12 04:30:16;;;;;;;;;3.50;3.00;;;;;20.88;58.67;100502.41;4896448;29;45210;-67
2021/07/12 04:32:42;;;;;;;;;3.00;3.00;;;;;20.89;59.03;100508.69;4884525;29;46465;-67
2021/07/12 04:35:08;;;;;;;;;4.75;4.75;;;;;21.01;59.18;100526.69;4886058;29;45400;-67
2021/07/12 04:37:34;;;;;;;;;6.00;4.25;;;;;21.03;59.33;100529.28;4884044;29;45451;-67
2021/07/12 04:39:59;;;;;;;;;3.00;3.00;;;;;21.07;59.01;100536.22;4898631;29;45372;-67
2021/07/12 04:42:24;;;;;;;;;5.00;3.75;;;;;21.07;58.87;100523.50;4885702;29;46614;-67
2021/07/12 04:44:50;;;;;;;;;5.00;4.00;;;;;20.92;58.94;100493.03;4886169;29;45415;-67
2021/07/12 04:47:15;;;;;;;;;6.75;5.00;;;;;21.05;59.05;100520.03;4884687;29;45556;-67
2021/07/12 04:49:41;;;;;;;;;5.50;5.00;;;;;21.10;58.84;100527.81;4886068;29;45318;-67
2021/07/12 04:52:06;;;;;;;;;4.00;4.00;;;;;21.02;58.71;100512.16;4885462;29;45497;-67
2021/07/12 04:54:32;;;;;;;;;4.50;4.50;;;;;21.03;58.99;100508.47;4892582;29;45464;-67
2021/07/12 04:56:58;;;;;;;;;5.00;5.00;;;;;21.09;58.61;100518.81;4890594;29;45266;-67
2021/07/12 04:59:26;;;;;;;;;5.00;4.00;;;;;21.01;59.09;100510.41;4885987;29;45217;-67
2021/07/12 05:01:51;;;;;;;;;3.50;3.50;;;;;20.86;59.08;100485.34;4885449;29;46461;-67
2021/07/12 05:04:17;;;;;;;;;5.00;5.00;;;;;21.04;58.85;100523.72;4891986;29;45368;-67
2021/07/12 05:06:42;;;;;;;;;4.00;4.00;;;;;21.08;59.31;100533.38;4885342;29;45571;-67
2021/07/12 05:09:07;;;;;;;;;4.00;4.00;;;;;21.03;59.04;100522.03;4891189;29;45461;-67
2021/07/12 05:11:33;;;;;;;;;4.00;4.00;;;;;20.88;59.15;100494.25;4878823;29;47270;-67
2021/07/12 05:13:59;;;;;;;;;4.75;4.75;;;;;20.89;58.82;100495.13;4885555;29;45460;-67
2021/07/12 05:16:24;;;;;;;;;3.50;3.50;;;;;21.00;59.32;100508.69;4868639;29;45432;-67
2021/07/12 05:18:50;;;;;;;;;4.50;3.25;;;;;20.82;59.26;100470.34;4868447;29;45517;-67
2021/07/12 05:21:15;;;;;;;;;3.25;3.25;;;;;20.97;59.11;100484.53;4883901;29;46383;-67
2021/07/12 05:23:41;;;;;;;;;2.00;2.00;;;;;21.01;59.60;100493.28;4885323;29;45551;-67
2021/07/12 05:26:06;;;;;;;;;4.00;4.00;;;;;20.86;59.31;100471.81;4885214;29;45380;-67
2021/07/12 05:28:33;;;;;;;;;5.50;4.00;;;;;20.87;59.09;100475.41;4885769;29;45221;-67
2021/07/12 05:30:58;;;;;;;;;3.50;3.00;;;;;20.75;59.34;100457.38;4885051;29;45992;-67
2021/07/12 05:33:24;;;;;;;;;3.50;3.50;;;;;20.83;59.86;100474.78;4891472;29;45406;-67
2021/07/12 05:35:49;;;;;;;;;4.00;4.00;;;;;20.87;59.80;100480.81;4869684;29;45256;-67
2021/07/12 05:38:15;;;;;;;;;4.00;4.00;;;;;20.96;59.29;100498.22;4871091;29;46187;-67
2021/07/12 05:40:40;;;;;;;;;3.75;3.75;;;;;20.93;59.93;100496.59;4903983;29;46697;-68
2021/07/12 05:43:08;;;;;;;;;3.00;3.00;;;;;20.93;60.02;100504.72;4869724;29;45503;-69
2021/07/12 05:45:34;;;;;;;;;3.00;3.00;;;;;20.86;60.13;100489.94;4885289;29;45448;-69
2021/07/12 05:47:59;;;;;;;;;3.25;3.25;;;;;20.88;59.89;100496.97;4884908;29;45528;-69
2021/07/12 05:50:24;;;;;;;;;4.25;4.25;;;;;20.95;60.33;100505.50;4890611;29;45980;-69
2021/07/12 05:52:50;;;;;;;;;3.50;3.50;;;;;20.75;60.05;100474.53;4896929;29;45397;-69
2021/07/12 05:55:15;;;;;;;;;6.00;5.25;;;;;20.91;60.40;100504.88;4885854;29;45536;-69
2021/07/12 05:57:41;;;;;;;;;5.25;5.25;;;;;20.60;60.76;100454.88;4889679;29;45408;-68
2021/07/12 06:00:08;;;;;;;;;4.75;4.25;;;;;20.74;60.25;100483.63;4886427;29;45919;-68
2021/07/12 06:02:34;;;;;;;;;3.50;3.50;;;;;20.86;60.71;100503.50;4895918;29;45210;-68
2021/07/12 06:04:59;;;;;;;;;5.00;5.00;;;;;20.84;60.69;100505.47;4892143;29;45413;-68
2021/07/12 06:07:25;;;;;;;;;5.75;4.00;;;;;20.76;61.26;100487.09;4891250;29;45233;-69
2021/07/12 06:09:50;;;;;;;;;6.25;5.50;;;;;20.75;61.59;100481.78;4882741;29;48606;-68
2021/07/12 06:12:16;;;;;;;;;5.00;5.00;;;;;20.54;61.63;100458.06;4887059;29;45364;-68
2021/07/12 06:14:41;;;;;;;;;4.50;4.25;;;;;20.46;61.34;100455.09;4899156;29;45332;-68
2021/07/12 06:17:06;;;;;;;;;5.00;3.00;;;;;20.53;61.81;100473.47;4886240;29;45474;-68
2021/07/12 06:19:32;;;;;;;;;3.75;3.75;;;;;20.46;61.93;100468.66;4903211;29;46916;-69
2021/07/12 06:21:57;;;;;;;;;5.00;4.75;;;;;20.43;61.57;100466.16;4885886;29;46137;-68
2021/07/12 06:24:23;;;;;;;;;7.00;4.50;;;;;20.62;61.42;100492.72;4897379;29;45447;-69
2021/07/12 06:26:48;;;;;;;;;5.25;4.00;;;;;20.39;61.78;100460.13;4884990;29;45507;-68
2021/07/12 06:29:13;;;;;;;;;4.75;4.75;;;;;20.57;62.46;100489.50;4886297;29;47214;-69
2021/07/12 06:31:39;;;;;;;;;4.00;4.00;;;;;20.48;62.01;100475.69;4884983;29;45317;-69
2021/07/12 06:34:04;;;;;;;;;6.75;4.25;;;;;20.34;62.36;100462.34;4884177;29;45452;-69
2021/07/12 06:36:29;;;;;;;;;4.00;4.00;;;;;20.50;62.59;100470.16;4868383;29;45497;-69
2021/07/12 06:38:55;;;;;;;;;5.50;4.50;;;;;20.46;62.39;100463.22;4891809;29;46378;-70
2021/07/12 06:41:20;;;;;;;;;8.00;6.00;;;;;20.38;62.79;100449.41;4896704;29;45376;-70
2021/07/12 06:43:46;;;;;;;;;5.75;5.00;;;;;20.41;63.05;100441.88;4887504;29;45258;-69
2021/07/12 06:46:11;;;;;;;;;4.25;4.25;;;;;20.34;62.90;100441.50;4891484;29;45813;-68
2021/07/12 06:48:36;;;;;;;;;3.00;3.00;;;;;20.40;62.86;100452.84;4882309;29;46031;-67
2021/07/12 06:51:02;;;;;;;;;4.25;4.25;;;;;20.23;62.84;100408.09;4873175;29;46036;-68
2021/07/12 06:53:28;;;;;;;;;5.75;5.75;;;;;20.40;63.07;100420.31;4883162;29;45372;-68
2021/07/12 06:55:53;;;;;;;;;5.75;5.00;;;;;20.42;63.84;100426.50;4882709;29;45640;-68
2021/07/12 06:58:18;;;;;;;;;5.00;4.75;;;;;20.26;63.53;100406.00;4895039;29;46267;-68
2021/07/12 07:00:44;;;;;;;;;5.00;4.25;;;;;20.35;63.78;100445.09;4889380;29;45397;-68
2021/07/12 07:03:09;;;;;;;;;4.75;4.75;;;;;20.40;63.88;100460.97;4899968;29;45264;-68
2021/07/12 07:05:36;;;;;;;;;7.25;7.25;;;;;20.38;63.58;100477.41;4882865;29;45924;-68
2021/07/12 07:08:02;;;;;;;;;5.00;5.00;;;;;20.29;63.91;100469.97;4882494;29;47339;-68
2021/07/12 07:10:28;;;;;;;;;6.50;5.75;;;;;20.43;64.30;100493.28;4890593;29;45740;-68
2021/07/12 07:12:53;;;;;;;;;5.75;5.75;;;;;20.42;64.56;100473.44;4869588;29;45465;-69
2021/07/12 07:15:19;;;;;;;;;6.25;6.25;;;;;20.23;64.30;100444.22;4874698;29;45404;-69
2021/07/12 07:17:45;;;;;;;;;5.75;5.00;;;;;20.36;64.37;100482.03;4887212;29;46380;-69
2021/07/12 07:20:11;;;;;;;;;5.75;4.75;;;;;20.39;64.58;100494.50;4885672;29;45403;-67
2021/07/12 07:22:37;;;;;;;;;6.00;5.25;;;;;20.36;64.67;100499.19;4898439;29;45661;-69
2021/07/12 07:25:05;;;;;;;;;6.00;6.00;;;;;20.34;65.22;100490.28;4898475;29;45365;-68
2021/07/12 07:27:32;;;;;;;;;5.75;5.00;;;;;20.19;65.25;100467.09;4875294;29;45424;-68
2021/07/12 07:29:58;;;;;;;;;7.25;6.25;;;;;20.21;65.24;100472.41;4898879;29;45511;-68
2021/07/12 07:32:25;;;;;;;;;6.00;6.00;;;;;20.14;65.35;100461.16;4884651;29;45375;-68
2021/07/12 07:34:52;;;;;;;;;6.25;5.50;;;;;20.26;65.61;100476.47;4903686;29;45562;-68
2021/07/12 07:37:18;;;;;;;;;6.00;6.00;;;;;20.34;65.78;100494.88;4872510;29;47783;-68
2021/07/12 07:39:43;;;;;;;;;7.25;6.00;;;;;20.26;65.75;100481.88;4908583;28;45476;-67
2021/07/12 07:42:09;;;;;;;;;7.00;7.00;;;;;20.28;65.86;100484.50;4886375;29;45250;-67
2021/07/12 07:44:34;;;;;;;;;8.25;6.25;;;;;20.24;66.54;100481.16;4885829;29;45487;-67
2021/07/12 07:47:00;;;;;;;;;8.75;8.25;;;;;20.17;66.00;100477.19;4880526;29;47658;-67
2021/07/12 07:49:27;;;;;;;;;7.25;7.00;;;;;20.18;66.43;100479.78;4887381;29;45675;-67
2021/07/12 07:51:52;;;;;;;;;8.25;8.25;;;;;20.22;66.70;100482.28;4885779;29;45434;-67
2021/07/12 07:54:21;;;;;;;;;8.25;8.25;;;;;20.25;66.69;100476.63;4886534;29;45651;-67
2021/07/12 07:56:47;;;;;;;;;11.25;9.25;;;;;20.10;66.82;100456.97;4887637;29;45655;-68
2021/07/12 07:59:14;;;;;;;;;7.50;7.50;;;;;20.15;67.01;100462.91;4885254;29;45404;-72
2021/07/12 08:01:40;;;;;;;;;7.25;7.25;;;;;20.15;67.09;100454.78;4883441;29;45397;-67
2021/07/12 08:04:05;;;;;;;;;9.25;8.75;;;;;20.12;66.92;100455.88;4892328;29;45327;-67
2021/07/12 08:06:31;;;;;;;;;9.50;8.50;;;;;20.27;67.09;100472.78;4889345;29;45375;-68
2021/07/12 08:08:56;;;;;;;;;10.00;10.00;;;;;20.25;66.85;100452.22;4883627;29;45790;-67
2021/07/12 08:11:22;;;;;;;;;8.25;7.00;;;;;20.26;67.09;100460.22;4893562;29;45477;-67
2021/07/12 08:13:47;;;;;;;;;12.75;10.25;;;;;20.06;67.29;100417.53;4898658;29;45603;-68
2021/07/12 08:16:13;;;;;;;;;10.50;10.50;;;;;20.25;67.36;100444.94;4885598;29;45502;-68
2021/07/12 08:18:39;;;;;;;;;10.00;9.50;;;;;20.10;67.46;100419.91;4885378;29;45475;-68
2021/07/12 08:21:06;;;;;;;;;9.75;9.75;;;;;20.04;67.36;100414.09;4882953;29;45650;-68
2021/07/12 08:23:32;;;;;;;;;7.00;7.00;;;;;20.27;67.63;100448.41;4888792;29;45300;-68
2021/07/12 08:25:57;;;;;;;;;10.00;9.00;;;;;20.08;67.01;100429.13;4887076;29;48625;-68
2021/07/12 08:28:25;;;;;;;;;5.75;5.75;;;;;20.25;67.37;100461.22;4869847;29;45324;-68
2021/07/12 08:30:52;;;;;;;;;9.00;9.00;;;;;20.30;67.58;100488.81;4885011;29;45324;-68
2021/07/12 08:33:19;;;;;;;;;8.50;8.50;;;;;20.22;67.93;100477.72;4884823;29;45455;-65
2021/07/12 08:35:47;;;;;;;;;9.25;8.00;;;;;20.23;67.80;100479.44;4868076;29;47090;-65
2021/07/12 08:38:13;;;;;;;;;10.75;10.75;;;;;20.29;67.66;100500.63;4890353;29;45404;-65
2021/07/12 08:40:39;;;;;;;;;8.00;7.50;;;;;20.30;68.04;100504.22;4891988;29;45591;-68
2021/07/12 08:43:04;;;;;;;;;9.00;9.00;;;;;20.22;68.11;100496.69;4884916;29;45620;-68
2021/07/12 08:45:30;;;;;;;;;11.25;10.00;;;;;20.16;68.08;100489.00;4876585;29;47823;-68
2021/07/12 08:47:56;;;;;;;;;8.00;8.00;;;;;20.20;68.62;100489.63;4884962;29;45227;-68
2021/07/12 08:50:23;;;;;;;;;7.75;7.50;;;;;20.22;67.97;100476.84;4883538;29;45636;-68
2021/07/12 08:52:50;;;;;;;;;9.00;8.00;;;;;20.13;68.12;100475.69;4884537;29;45716;-68
2021/07/12 08:55:16;;;;;;;;;9.00;9.00;;;;;20.37;67.98;100505.47;4896924;29;46430;-68
2021/07/12 08:58:19;;;;;;;;;8.75;7.00;;;;;20.36;67.88;100504.63;4885389;29;45355;-68
2021/07/12 09:00:57;;;;;;;;;9.25;8.00;;;;;20.36;68.14;100496.50;4891801;29;45493;-68
2021/07/12 09:03:34;;;;;;;;;9.75;8.50;;;;;20.48;68.60;100515.47;4891720;29;45723;-68
2021/07/12 09:06:04;;;;;;;;;10.00;9.25;;;;;20.36;68.55;100488.34;4895696;29;45539;-67
2021/07/12 09:08:58;;;;;;;;;7.00;7.00;;;;;20.47;67.80;100505.63;4894257;29;45460;-67
2021/07/12 09:11:31;;;;;;;;;10.50;9.50;;;;;20.51;68.50;100509.81;4886027;29;45430;-68
2021/07/12 09:14:07;;;;;;;;;8.50;7.75;;;;;20.53;67.77;100514.16;4882712;29;45938;-68
2021/07/12 09:16:38;;;;;;;;;6.50;6.00;;;;;20.55;67.85;100525.72;4882739;29;45935;-68
2021/07/12 09:19:23;;;;;;;;;7.75;7.75;;;;;20.57;68.08;100516.63;4882774;29;45558;-68
2021/07/12 09:22:03;;;;;;;;;8.75;8.75;;;;;20.58;68.47;100523.75;4882241;29;45385;-68
2021/07/12 09:24:30;;;;;;;;;7.25;7.25;;;;;20.59;68.10;100523.63;4885925;29;46104;-68
2021/07/12 09:27:07;;;;;;;;;7.00;6.25;;;;;20.44;68.60;100505.88;4885079;29;48486;-68
2021/07/12 09:29:38;;;;;;;;;6.75;6.75;;;;;20.44;68.73;100504.00;4882821;29;45876;-68
2021/07/12 09:32:08;;;;;;;;;7.50;7.00;;;;;20.36;68.30;100492.88;4883808;29;45543;-68
2021/07/12 09:34:34;;;;;;;;;7.50;7.00;;;;;20.48;69.04;100510.03;4884172;29;45650;-68
2021/07/12 09:37:01;;;;;;;;;7.00;6.75;;;;;20.49;68.75;100523.50;4884110;29;46533;-68
2021/07/12 09:39:32;;;;;;;;;8.00;7.25;;;;;20.45;68.37;100523.88;4888589;29;45627;-68
2021/07/12 09:42:03;;;;;;;;;9.00;7.75;;;;;20.51;68.50;100532.41;4883712;29;45429;-68
2021/07/12 09:44:30;;;;;;;;;7.50;5.50;;;;;20.55;68.55;100550.13;4896442;29;45474;-68
2021/07/12 09:47:02;;;;;;;;;6.00;6.00;;;;;20.51;68.41;100554.09;4884340;29;46352;-68
2021/07/12 09:49:27;;;;;;;;;6.50;6.25;;;;;20.45;68.51;100541.00;4876947;29;45799;-68
2021/07/12 09:51:59;;;;;;;;;6.00;6.00;;;;;20.50;68.63;100554.19;4901326;29;45625;-69
2021/07/12 09:54:35;;;;;;;;;6.50;5.00;;;;;20.54;68.36;100561.09;4897276;29;45475;-68
2021/07/12 09:57:18;;;;;;;;;5.00;5.00;;;;;20.38;68.26;100525.31;4897572;29;45306;-68
2021/07/12 09:59:58;;;;;;;;;6.00;5.75;;;;;20.56;68.46;100556.41;4894387;29;45409;-68
2021/07/12 10:02:26;;;;;;;;;6.50;5.50;;;;;20.34;69.05;100514.69;4896973;29;45595;-68
2021/07/12 10:04:57;;;;;;;;;6.00;5.25;;;;;20.41;68.72;100523.22;4900774;29;45482;-68
2021/07/12 10:07:23;;;;;;;;;6.25;5.00;;;;;20.44;68.93;100531.13;4884862;29;47393;-68
2021/07/12 10:09:49;;;;;;;;;5.00;5.00;;;;;20.50;68.81;100543.34;4897160;29;45601;-68
2021/07/12 10:12:15;;;;;;;;;5.00;5.00;;;;;20.44;68.51;100538.41;4902403;29;45578;-68
2021/07/12 10:14:41;;;;;;;;;7.25;7.25;;;;;20.38;68.97;100525.31;4902847;29;45378;-70
2021/07/12 10:17:09;;;;;;;;;6.50;6.50;;;;;20.44;69.01;100541.09;4892704;29;45483;-67
2021/07/12 10:19:34;;;;;;;;;7.50;7.00;;;;;20.50;69.21;100549.63;4883311;29;45428;-69
2021/07/12 10:22:00;;;;;;;;;9.25;8.75;;;;;20.57;69.40;100551.88;4891977;29;45365;-67
2021/07/12 10:24:27;;;;;;;;;7.50;7.50;;;;;20.43;68.85;100523.09;4902049;29;45487;-67
2021/07/12 10:27:00;;;;;;;;;8.75;8.75;;;;;20.51;69.62;100540.53;4885082;29;47563;-68
2021/07/12 10:29:30;;;;;;;;;8.75;8.75;;;;;20.40;69.87;100515.19;4883539;29;45550;-68
2021/07/12 10:32:03;;;;;;;;;10.25;9.50;;;;;20.49;69.99;100517.22;4878240;29;45459;-68
2021/07/12 10:34:40;;;;;;;;;11.75;8.75;;;;;20.63;69.84;100527.00;4884204;29;45390;-69
2021/07/12 10:37:30;;;;;;;;;9.00;9.00;;;;;20.67;69.92;100534.78;4874782;29;47479;-68
2021/07/12 10:40:18;;;;;;;;;8.25;8.25;;;;;20.58;70.16;100513.81;4880800;29;45174;-68
2021/07/12 10:42:43;;;;;;;;;9.50;8.25;;;;;20.77;70.06;100543.06;4899461;29;45352;-68
2021/07/12 10:45:33;;;;;;;;;8.00;7.75;;;;;20.79;70.03;100537.53;4890565;29;45495;-68
2021/07/12 10:47:59;;;;;;;;;8.00;8.00;;;;;20.84;70.60;100522.59;4891486;29;45330;-68
2021/07/12 10:50:37;;;;;;;;;8.75;8.75;;;;;20.90;71.19;100518.56;4896702;29;45675;-68
2021/07/12 10:53:14;;;;;;;;;11.75;9.75;;;;;20.95;69.98;100516.34;4886284;29;45379;-67
2021/07/12 10:55:58;;;;;;;;;8.25;8.25;;;;;21.01;70.61;100510.41;4888921;29;45535;-68
2021/07/12 10:58:26;;;;;;;;;9.00;9.00;;;;;21.08;70.42;100505.34;4885835;29;45551;-68
2021/07/12 11:00:54;;;;;;;;;10.50;10.00;;;;;20.98;70.37;100474.53;4885551;29;45368;-68
2021/07/12 11:03:43;;;;;;;;;13.75;10.00;;;;;21.18;69.44;100490.03;4891804;29;45585;-68
2021/07/12 11:06:16;;;;;;;;;9.25;9.00;;;;;21.09;69.92;100469.09;4886570;29;45471;-68
2021/07/12 11:08:57;;;;;;;;;11.50;11.25;;;;;21.13;69.33;100458.84;4886579;29;45455;-68
2021/07/12 11:11:22;;;;;;;;;10.50;8.75;;;;;21.31;69.32;100483.63;4884969;29;45728;-68
2021/07/12 11:14:02;;;;;;;;;8.00;8.00;;;;;21.14;69.08;100450.59;4882046;29;45414;-68
2021/07/12 11:16:41;;;;;;;;;10.00;10.00;;;;;21.20;68.30;100443.78;4886524;29;45460;-68
2021/07/12 11:19:24;;;;;;;;;10.25;10.25;;;;;21.43;69.27;100480.78;4886446;29;45717;-68
2021/07/12 11:21:51;;;;;;;;;9.00;8.00;;;;;21.33;68.75;100458.06;4887025;29;45622;-68
2021/07/12 11:24:23;;;;;;;;;10.00;9.75;;;;;21.31;68.70;100448.34;4890780;29;45627;-68
2021/07/12 11:26:56;;;;;;;;;10.00;8.25;;;;;21.52;68.57;100476.47;4895565;29;45728;-71
2021/07/12 11:29:26;;;;;;;;;15.25;13.75;;;;;21.37;68.19;100448.72;4899811;29;45926;-70
2021/07/12 11:32:08;;;;;;;;;10.25;10.00;;;;;21.57;68.66;100473.38;4893957;29;45711;-68